sensor_id;sensor_type;location;lat;lon;timestamp;temperature;humidity
30893;DHT22;17595;50.884;4.346;2022-08-18T00:00:31;21.60;99.90
30893;DHT22;17595;50.884;4.346;2022-08-18T00:03:00;21.50;99.90
30893;DHT22;17595;50.884;4.346;2022-08-18T00:05:28;21.50;99.90
30893;DHT22;17595;50.884;4.346;2022-08-18T00:07:53;21.40;99.90
30893;DHT22;17595;50.884;4.346;2022-08-18T00:10:19;21.40;99.90
30893;DHT22;17595;50.884;4.346;2022-08-18T00:12:44;21.50;99.90
30893;DHT22;17595;50.884;4.346;2022-08-18T00:15:13;21.60;99.90
30893;DHT22;17595;50.884;4.346;2022-08-18T00:17:39;21.70;99.90
30893;DHT22;17595;50.884;4.346;2022-08-18T00:20:08;21.70;99.90
30893;DHT22;17595;50.884;4.346;2022-08-18T00:22:35;21.80;99.90
30893;DHT22;17595;50.884;4.346;2022-08-18T00:25:01;21.80;99.90
30893;DHT22;17595;50.884;4.346;2022-08-18T00:27:28;21.80;99.90
30893;DHT22;17595;50.884;4.346;2022-08-18T00:29:56;21.70;99.90
30893;DHT22;17595;50.884;4.346;2022-08-18T00:32:25;21.60;99.90
30893;DHT22;17595;50.884;4.346;2022-08-18T00:34:52;21.70;99.90
30893;DHT22;17595;50.884;4.346;2022-08-18T00:37:17;21.60;99.90
30893;DHT22;17595;50.884;4.346;2022-08-18T00:39:43;21.70;99.90
30893;DHT22;17595;50.884;4.346;2022-08-18T00:42:23;21.70;99.90
30893;DHT22;17595;50.884;4.346;2022-08-18T00:44:50;21.70;99.90
30893;DHT22;17595;50.884;4.346;2022-08-18T00:47:15;21.70;99.90
30893;DHT22;17595;50.884;4.346;2022-08-18T00:49:43;21.80;99.90
30893;DHT22;17595;50.884;4.346;2022-08-18T00:52:12;21.80;99.90
30893;DHT22;17595;50.884;4.346;2022-08-18T00:54:40;21.80;99.90
30893;DHT22;17595;50.884;4.346;2022-08-18T00:57:07;22.00;99.90
30893;DHT22;17595;50.884;4.346;2022-08-18T00:59:39;22.10;99.90
30893;DHT22;17595;50.884;4.346;2022-08-18T01:02:11;22.20;99.90
30893;DHT22;17595;50.884;4.346;2022-08-18T01:04:42;22.00;99.90
30893;DHT22;17595;50.884;4.346;2022-08-18T01:07:13;21.90;99.90
30893;DHT22;17595;50.884;4.346;2022-08-18T01:09:42;21.90;99.90
30893;DHT22;17595;50.884;4.346;2022-08-18T01:12:08;22.00;99.90
30893;DHT22;17595;50.884;4.346;2022-08-18T01:14:36;21.90;99.90
30893;DHT22;17595;50.884;4.346;2022-08-18T01:17:02;21.80;99.90
30893;DHT22;17595;50.884;4.346;2022-08-18T01:19:46;21.90;99.90
30893;DHT22;17595;50.884;4.346;2022-08-18T01:25:12;22.10;99.90
30893;DHT22;17595;50.884;4.346;2022-08-18T01:27:56;22.10;99.90
30893;DHT22;17595;50.884;4.346;2022-08-18T01:30:22;22.10;99.90
30893;DHT22;17595;50.884;4.346;2022-08-18T01:32:51;22.20;99.90
30893;DHT22;17595;50.884;4.346;2022-08-18T01:35:17;22.10;99.90
30893;DHT22;17595;50.884;4.346;2022-08-18T01:37:45;22.10;99.90
30893;DHT22;17595;50.884;4.346;2022-08-18T01:40:13;22.10;99.90
30893;DHT22;17595;50.884;4.346;2022-08-18T01:42:39;22.30;99.90
30893;DHT22;17595;50.884;4.346;2022-08-18T01:45:08;22.30;99.90
30893;DHT22;17595;50.884;4.346;2022-08-18T01:47:35;22.30;99.90
30893;DHT22;17595;50.884;4.346;2022-08-18T01:50:01;22.40;99.90
30893;DHT22;17595;50.884;4.346;2022-08-18T01:52:27;22.50;99.90
30893;DHT22;17595;50.884;4.346;2022-08-18T01:54:54;22.50;99.90
30893;DHT22;17595;50.884;4.346;2022-08-18T01:57:22;22.50;99.90
30893;DHT22;17595;50.884;4.346;2022-08-18T01:59:48;22.40;99.90
30893;DHT22;17595;50.884;4.346;2022-08-18T02:02:19;22.40;99.90
30893;DHT22;17595;50.884;4.346;2022-08-18T02:04:51;22.40;99.90
30893;DHT22;17595;50.884;4.346;2022-08-18T02:07:19;22.40;99.90
30893;DHT22;17595;50.884;4.346;2022-08-18T02:09:45;22.40;99.90
30893;DHT22;17595;50.884;4.346;2022-08-18T02:12:11;22.30;99.90
30893;DHT22;17595;50.884;4.346;2022-08-18T02:14:38;22.40;99.90
30893;DHT22;17595;50.884;4.346;2022-08-18T02:17:06;22.30;99.90
30893;DHT22;17595;50.884;4.346;2022-08-18T02:19:43;22.30;99.90
30893;DHT22;17595;50.884;4.346;2022-08-18T02:22:15;22.30;99.90
30893;DHT22;17595;50.884;4.346;2022-08-18T02:24:42;22.30;99.90
30893;DHT22;17595;50.884;4.346;2022-08-18T02:27:09;22.30;99.90
30893;DHT22;17595;50.884;4.346;2022-08-18T02:29:35;22.30;99.90
30893;DHT22;17595;50.884;4.346;2022-08-18T02:32:01;22.20;99.90
30893;DHT22;17595;50.884;4.346;2022-08-18T02:34:27;22.20;99.90
30893;DHT22;17595;50.884;4.346;2022-08-18T02:36:53;22.20;99.90
30893;DHT22;17595;50.884;4.346;2022-08-18T02:39:19;22.20;99.90
30893;DHT22;17595;50.884;4.346;2022-08-18T02:41:44;22.10;99.90
30893;DHT22;17595;50.884;4.346;2022-08-18T02:44:10;22.10;99.90
30893;DHT22;17595;50.884;4.346;2022-08-18T02:46:37;22.10;99.90
30893;DHT22;17595;50.884;4.346;2022-08-18T02:49:04;22.00;99.90
30893;DHT22;17595;50.884;4.346;2022-08-18T02:51:30;22.00;99.90
30893;DHT22;17595;50.884;4.346;2022-08-18T02:53:56;21.90;99.90
30893;DHT22;17595;50.884;4.346;2022-08-18T02:56:29;21.90;99.90
30893;DHT22;17595;50.884;4.346;2022-08-18T02:58:57;21.90;99.90
30893;DHT22;17595;50.884;4.346;2022-08-18T03:01:27;21.70;99.90
30893;DHT22;17595;50.884;4.346;2022-08-18T03:03:53;21.60;99.90
30893;DHT22;17595;50.884;4.346;2022-08-18T03:06:20;21.50;99.90
30893;DHT22;17595;50.884;4.346;2022-08-18T03:08:46;21.40;99.90
30893;DHT22;17595;50.884;4.346;2022-08-18T03:11:20;21.40;99.90
30893;DHT22;17595;50.884;4.346;2022-08-18T03:13:47;21.50;99.90
30893;DHT22;17595;50.884;4.346;2022-08-18T03:16:13;21.60;99.90
30893;DHT22;17595;50.884;4.346;2022-08-18T03:18:40;21.60;99.90
30893;DHT22;17595;50.884;4.346;2022-08-18T03:21:16;21.60;99.90
30893;DHT22;17595;50.884;4.346;2022-08-18T03:23:42;21.60;99.90
30893;DHT22;17595;50.884;4.346;2022-08-18T03:26:11;21.60;99.90
30893;DHT22;17595;50.884;4.346;2022-08-18T03:28:38;21.60;99.90
30893;DHT22;17595;50.884;4.346;2022-08-18T03:31:05;21.50;99.90
30893;DHT22;17595;50.884;4.346;2022-08-18T03:33:31;21.40;99.90
30893;DHT22;17595;50.884;4.346;2022-08-18T03:36:12;21.40;99.90
30893;DHT22;17595;50.884;4.346;2022-08-18T03:38:39;21.30;99.90
30893;DHT22;17595;50.884;4.346;2022-08-18T03:41:06;21.40;99.90
30893;DHT22;17595;50.884;4.346;2022-08-18T03:43:33;21.40;99.90
30893;DHT22;17595;50.884;4.346;2022-08-18T03:46:03;21.30;99.90
30893;DHT22;17595;50.884;4.346;2022-08-18T03:48:30;21.40;99.90
30893;DHT22;17595;50.884;4.346;2022-08-18T03:51:30;21.40;99.90
30893;DHT22;17595;50.884;4.346;2022-08-18T03:53:56;21.40;99.90
30893;DHT22;17595;50.884;4.346;2022-08-18T03:56:26;21.40;99.90
30893;DHT22;17595;50.884;4.346;2022-08-18T03:58:54;21.50;99.90
30893;DHT22;17595;50.884;4.346;2022-08-18T04:01:29;21.60;99.90
30893;DHT22;17595;50.884;4.346;2022-08-18T04:04:03;21.60;99.90
30893;DHT22;17595;50.884;4.346;2022-08-18T04:06:35;21.60;99.90
30893;DHT22;17595;50.884;4.346;2022-08-18T04:09:05;21.50;99.90
30893;DHT22;17595;50.884;4.346;2022-08-18T04:11:33;21.50;99.90
30893;DHT22;17595;50.884;4.346;2022-08-18T04:13:59;21.70;99.90
30893;DHT22;17595;50.884;4.346;2022-08-18T04:16:25;21.70;99.90
30893;DHT22;17595;50.884;4.346;2022-08-18T04:18:51;21.80;99.90
30893;DHT22;17595;50.884;4.346;2022-08-18T04:21:17;21.70;99.90
30893;DHT22;17595;50.884;4.346;2022-08-18T04:23:43;21.60;99.90
30893;DHT22;17595;50.884;4.346;2022-08-18T04:26:10;21.60;99.90
30893;DHT22;17595;50.884;4.346;2022-08-18T04:28:37;21.50;99.90
30893;DHT22;17595;50.884;4.346;2022-08-18T04:31:12;21.60;99.90
30893;DHT22;17595;50.884;4.346;2022-08-18T04:33:40;21.50;99.90
30893;DHT22;17595;50.884;4.346;2022-08-18T04:36:11;21.60;99.90
30893;DHT22;17595;50.884;4.346;2022-08-18T04:38:38;21.70;99.90
30893;DHT22;17595;50.884;4.346;2022-08-18T04:41:06;21.60;99.90
30893;DHT22;17595;50.884;4.346;2022-08-18T04:43:32;21.60;99.90
30893;DHT22;17595;50.884;4.346;2022-08-18T04:45:59;21.60;99.90
30893;DHT22;17595;50.884;4.346;2022-08-18T04:48:44;21.60;99.90
30893;DHT22;17595;50.884;4.346;2022-08-18T04:51:12;21.50;99.90
30893;DHT22;17595;50.884;4.346;2022-08-18T04:53:39;21.50;99.90
30893;DHT22;17595;50.884;4.346;2022-08-18T04:59:09;21.50;99.90
30893;DHT22;17595;50.884;4.346;2022-08-18T05:01:39;21.50;99.90
30893;DHT22;17595;50.884;4.346;2022-08-18T05:04:05;21.50;99.90
30893;DHT22;17595;50.884;4.346;2022-08-18T05:06:31;21.60;99.90
30893;DHT22;17595;50.884;4.346;2022-08-18T05:09:00;21.60;99.90
30893;DHT22;17595;50.884;4.346;2022-08-18T05:11:29;21.60;99.90
30893;DHT22;17595;50.884;4.346;2022-08-18T05:13:58;21.70;99.90
30893;DHT22;17595;50.884;4.346;2022-08-18T05:16:25;21.70;99.90
30893;DHT22;17595;50.884;4.346;2022-08-18T05:18:51;21.70;99.90
30893;DHT22;17595;50.884;4.346;2022-08-18T05:21:19;21.60;99.90
30893;DHT22;17595;50.884;4.346;2022-08-18T05:23:47;21.60;99.90
30893;DHT22;17595;50.884;4.346;2022-08-18T05:26:14;21.60;99.90
30893;DHT22;17595;50.884;4.346;2022-08-18T05:28:41;21.50;99.90
30893;DHT22;17595;50.884;4.346;2022-08-18T05:31:12;21.40;99.90
30893;DHT22;17595;50.884;4.346;2022-08-18T05:33:39;21.50;99.90
30893;DHT22;17595;50.884;4.346;2022-08-18T05:41:26;21.50;99.90
30893;DHT22;17595;50.884;4.346;2022-08-18T05:43:53;21.40;99.90
30893;DHT22;17595;50.884;4.346;2022-08-18T05:46:29;21.40;99.90
30893;DHT22;17595;50.884;4.346;2022-08-18T05:48:56;21.30;99.90
30893;DHT22;17595;50.884;4.346;2022-08-18T05:51:32;21.30;99.90
30893;DHT22;17595;50.884;4.346;2022-08-18T05:54:01;21.30;99.90
30893;DHT22;17595;50.884;4.346;2022-08-18T05:56:46;21.40;99.90
30893;DHT22;17595;50.884;4.346;2022-08-18T05:59:36;21.40;99.90
30893;DHT22;17595;50.884;4.346;2022-08-18T06:02:17;21.50;99.90
30893;DHT22;17595;50.884;4.346;2022-08-18T06:04:52;21.60;99.90
30893;DHT22;17595;50.884;4.346;2022-08-18T06:07:25;21.80;99.90
30893;DHT22;17595;50.884;4.346;2022-08-18T06:09:53;21.80;99.90
30893;DHT22;17595;50.884;4.346;2022-08-18T06:21:10;22.00;99.90
30893;DHT22;17595;50.884;4.346;2022-08-18T06:24:30;22.00;99.90
30893;DHT22;17595;50.884;4.346;2022-08-18T06:27:00;22.00;99.90
30893;DHT22;17595;50.884;4.346;2022-08-18T06:37:32;22.10;99.90
30893;DHT22;17595;50.884;4.346;2022-08-18T06:39:58;22.10;99.90
30893;DHT22;17595;50.884;4.346;2022-08-18T06:42:26;22.20;99.90
30893;DHT22;17595;50.884;4.346;2022-08-18T06:45:02;22.40;99.90
30893;DHT22;17595;50.884;4.346;2022-08-18T06:50:31;22.40;99.90
30893;DHT22;17595;50.884;4.346;2022-08-18T06:53:02;22.40;99.90
30893;DHT22;17595;50.884;4.346;2022-08-18T07:00:42;22.10;99.90
30893;DHT22;17595;50.884;4.346;2022-08-18T07:03:17;22.20;99.90
30893;DHT22;17595;50.884;4.346;2022-08-18T07:08:30;22.00;99.90
30893;DHT22;17595;50.884;4.346;2022-08-18T07:11:23;22.00;99.90
30893;DHT22;17595;50.884;4.346;2022-08-18T07:13:55;22.00;99.90
30893;DHT22;17595;50.884;4.346;2022-08-18T07:18:52;22.20;99.90
30893;DHT22;17595;50.884;4.346;2022-08-18T07:21:32;22.40;99.90
30893;DHT22;17595;50.884;4.346;2022-08-18T07:24:07;22.70;99.90
30893;DHT22;17595;50.884;4.346;2022-08-18T07:29:30;23.10;99.90
30893;DHT22;17595;50.884;4.346;2022-08-18T07:32:00;23.30;99.90
30893;DHT22;17595;50.884;4.346;2022-08-18T07:34:30;23.60;99.90
30893;DHT22;17595;50.884;4.346;2022-08-18T07:42:43;23.90;99.90
30893;DHT22;17595;50.884;4.346;2022-08-18T07:48:09;23.90;99.90
30893;DHT22;17595;50.884;4.346;2022-08-18T07:50:44;23.80;99.90
30893;DHT22;17595;50.884;4.346;2022-08-18T07:53:28;23.90;99.90
30893;DHT22;17595;50.884;4.346;2022-08-18T07:56:04;24.10;99.90
30893;DHT22;17595;50.884;4.346;2022-08-18T07:58:42;24.30;99.90
30893;DHT22;17595;50.884;4.346;2022-08-18T08:01:32;24.20;99.90
30893;DHT22;17595;50.884;4.346;2022-08-18T08:06:38;24.20;99.90
30893;DHT22;17595;50.884;4.346;2022-08-18T08:09:09;24.20;99.90
30893;DHT22;17595;50.884;4.346;2022-08-18T08:11:46;24.10;99.90
30893;DHT22;17595;50.884;4.346;2022-08-18T08:14:36;23.90;99.90
30893;DHT22;17595;50.884;4.346;2022-08-18T08:17:23;23.60;99.90
30893;DHT22;17595;50.884;4.346;2022-08-18T08:25:24;23.60;99.90
30893;DHT22;17595;50.884;4.346;2022-08-18T08:28:28;23.50;99.90
30893;DHT22;17595;50.884;4.346;2022-08-18T08:31:13;23.60;99.90
30893;DHT22;17595;50.884;4.346;2022-08-18T08:33:46;23.60;99.90
30893;DHT22;17595;50.884;4.346;2022-08-18T08:36:26;23.60;99.90
30893;DHT22;17595;50.884;4.346;2022-08-18T08:39:04;23.80;99.90
30893;DHT22;17595;50.884;4.346;2022-08-18T08:41:43;24.00;99.90
30893;DHT22;17595;50.884;4.346;2022-08-18T08:44:25;24.10;99.90
30893;DHT22;17595;50.884;4.346;2022-08-18T08:47:04;24.00;99.90
30893;DHT22;17595;50.884;4.346;2022-08-18T08:55:09;24.80;99.90
30893;DHT22;17595;50.884;4.346;2022-08-18T08:57:40;25.00;99.90
30893;DHT22;17595;50.884;4.346;2022-08-18T09:00:09;25.30;99.90
30893;DHT22;17595;50.884;4.346;2022-08-18T09:03:07;25.50;99.90
30893;DHT22;17595;50.884;4.346;2022-08-18T09:06:03;25.40;99.90
30893;DHT22;17595;50.884;4.346;2022-08-18T09:14:45;25.40;99.90
30893;DHT22;17595;50.884;4.346;2022-08-18T09:17:26;25.60;99.90
30893;DHT22;17595;50.884;4.346;2022-08-18T09:28:20;25.10;99.90
30893;DHT22;17595;50.884;4.346;2022-08-18T09:38:20;24.10;99.90
30893;DHT22;17595;50.884;4.346;2022-08-18T09:41:17;24.10;99.90
30893;DHT22;17595;50.884;4.346;2022-08-18T09:51:57;25.10;99.90
30893;DHT22;17595;50.884;4.346;2022-08-18T09:54:31;25.20;99.90
30893;DHT22;17595;50.884;4.346;2022-08-18T10:01:58;25.00;99.90
30893;DHT22;17595;50.884;4.346;2022-08-18T10:04:30;25.10;99.90
30893;DHT22;17595;50.884;4.346;2022-08-18T10:23:08;24.80;99.90
30893;DHT22;17595;50.884;4.346;2022-08-18T10:25:43;24.60;99.90
30893;DHT22;17595;50.884;4.346;2022-08-18T10:28:52;24.60;99.90
30893;DHT22;17595;50.884;4.346;2022-08-18T10:31:17;24.80;99.90
30893;DHT22;17595;50.884;4.346;2022-08-18T10:34:09;25.40;99.90
30893;DHT22;17595;50.884;4.346;2022-08-18T10:39:16;25.80;99.90
30893;DHT22;17595;50.884;4.346;2022-08-18T10:41:57;26.00;99.90
30893;DHT22;17595;50.884;4.346;2022-08-18T10:44:25;25.80;99.90
30893;DHT22;17595;50.884;4.346;2022-08-18T10:46:51;25.20;99.90
30893;DHT22;17595;50.884;4.346;2022-08-18T10:49:23;24.80;99.90
30893;DHT22;17595;50.884;4.346;2022-08-18T10:55:17;24.50;99.90
30893;DHT22;17595;50.884;4.346;2022-08-18T11:00:20;24.50;99.90
30893;DHT22;17595;50.884;4.346;2022-08-18T11:05:34;24.30;99.90
30893;DHT22;17595;50.884;4.346;2022-08-18T11:08:03;24.40;99.90
30893;DHT22;17595;50.884;4.346;2022-08-18T11:10:45;24.60;99.90
30893;DHT22;17595;50.884;4.346;2022-08-18T11:13:36;24.90;99.90
30893;DHT22;17595;50.884;4.346;2022-08-18T11:18:44;25.50;99.90
30893;DHT22;17595;50.884;4.346;2022-08-18T11:21:36;25.60;99.90
30893;DHT22;17595;50.884;4.346;2022-08-18T11:24:08;25.90;99.90
30893;DHT22;17595;50.884;4.346;2022-08-18T11:29:36;25.40;99.90
30893;DHT22;17595;50.884;4.346;2022-08-18T11:37:25;25.60;99.90
30893;DHT22;17595;50.884;4.346;2022-08-18T11:39:55;25.70;99.90
30893;DHT22;17595;50.884;4.346;2022-08-18T11:42:32;25.50;99.90
30893;DHT22;17595;50.884;4.346;2022-08-18T11:45:18;25.70;99.90
30893;DHT22;17595;50.884;4.346;2022-08-18T11:48:15;25.80;99.90
30893;DHT22;17595;50.884;4.346;2022-08-18T11:53:40;26.00;99.90
30893;DHT22;17595;50.884;4.346;2022-08-18T11:59:00;25.80;99.90
30893;DHT22;17595;50.884;4.346;2022-08-18T12:06:27;26.50;99.90
30893;DHT22;17595;50.884;4.346;2022-08-18T12:11:34;26.70;99.90
30893;DHT22;17595;50.884;4.346;2022-08-18T12:14:09;26.70;99.90
30893;DHT22;17595;50.884;4.346;2022-08-18T12:16:41;26.50;99.90
30893;DHT22;17595;50.884;4.346;2022-08-18T12:19:10;26.60;99.90
30893;DHT22;17595;50.884;4.346;2022-08-18T12:21:47;26.80;99.90
30893;DHT22;17595;50.884;4.346;2022-08-18T12:24:22;27.10;99.90
30893;DHT22;17595;50.884;4.346;2022-08-18T12:26:49;27.50;99.90
30893;DHT22;17595;50.884;4.346;2022-08-18T12:29:15;27.70;99.90
30893;DHT22;17595;50.884;4.346;2022-08-18T12:31:43;27.80;99.90
30893;DHT22;17595;50.884;4.346;2022-08-18T12:34:09;28.00;99.90
30893;DHT22;17595;50.884;4.346;2022-08-18T12:36:34;27.70;99.90
30893;DHT22;17595;50.884;4.346;2022-08-18T12:39:00;27.60;99.90
30893;DHT22;17595;50.884;4.346;2022-08-18T12:41:26;27.50;99.90
30893;DHT22;17595;50.884;4.346;2022-08-18T12:43:51;27.20;99.90
30893;DHT22;17595;50.884;4.346;2022-08-18T12:46:20;27.00;99.90
30893;DHT22;17595;50.884;4.346;2022-08-18T12:48:46;26.30;99.90
30893;DHT22;17595;50.884;4.346;2022-08-18T12:51:14;26.00;99.90
30893;DHT22;17595;50.884;4.346;2022-08-18T12:53:40;26.00;99.90
30893;DHT22;17595;50.884;4.346;2022-08-18T12:56:10;26.30;99.90
30893;DHT22;17595;50.884;4.346;2022-08-18T12:58:39;26.50;99.90
30893;DHT22;17595;50.884;4.346;2022-08-18T13:01:05;26.50;99.90
30893;DHT22;17595;50.884;4.346;2022-08-18T13:03:31;26.70;99.90
30893;DHT22;17595;50.884;4.346;2022-08-18T13:05:56;27.00;99.90
30893;DHT22;17595;50.884;4.346;2022-08-18T13:08:22;27.10;99.90
30893;DHT22;17595;50.884;4.346;2022-08-18T13:10:48;27.20;99.90
30893;DHT22;17595;50.884;4.346;2022-08-18T13:13:16;27.20;99.90
30893;DHT22;17595;50.884;4.346;2022-08-18T13:15:42;27.30;99.90
30893;DHT22;17595;50.884;4.346;2022-08-18T13:18:08;27.50;99.90
30893;DHT22;17595;50.884;4.346;2022-08-18T13:20:34;27.50;99.90
30893;DHT22;17595;50.884;4.346;2022-08-18T13:23:00;27.60;99.90
30893;DHT22;17595;50.884;4.346;2022-08-18T13:25:26;27.80;99.90
30893;DHT22;17595;50.884;4.346;2022-08-18T13:27:52;27.90;99.90
30893;DHT22;17595;50.884;4.346;2022-08-18T13:30:20;28.10;99.90
30893;DHT22;17595;50.884;4.346;2022-08-18T13:32:45;28.20;99.90
30893;DHT22;17595;50.884;4.346;2022-08-18T13:35:11;28.30;99.90
30893;DHT22;17595;50.884;4.346;2022-08-18T13:37:37;28.20;99.90
30893;DHT22;17595;50.884;4.346;2022-08-18T13:40:03;28.10;99.90
30893;DHT22;17595;50.884;4.346;2022-08-18T13:42:29;27.40;99.90
30893;DHT22;17595;50.884;4.346;2022-08-18T13:44:58;26.90;99.90
30893;DHT22;17595;50.884;4.346;2022-08-18T13:47:25;26.60;99.90
30893;DHT22;17595;50.884;4.346;2022-08-18T13:49:54;26.80;99.90
30893;DHT22;17595;50.884;4.346;2022-08-18T13:52:19;27.10;99.90
30893;DHT22;17595;50.884;4.346;2022-08-18T13:54:45;27.00;99.90
30893;DHT22;17595;50.884;4.346;2022-08-18T13:57:11;26.80;99.90
30893;DHT22;17595;50.884;4.346;2022-08-18T13:59:37;26.60;99.90
30893;DHT22;17595;50.884;4.346;2022-08-18T14:02:06;26.80;99.90
30893;DHT22;17595;50.884;4.346;2022-08-18T14:04:33;27.20;99.90
30893;DHT22;17595;50.884;4.346;2022-08-18T14:06:59;27.30;99.90
30893;DHT22;17595;50.884;4.346;2022-08-18T14:09:26;27.20;99.90
30893;DHT22;17595;50.884;4.346;2022-08-18T14:11:52;27.00;99.90
30893;DHT22;17595;50.884;4.346;2022-08-18T14:14:18;26.80;99.90
30893;DHT22;17595;50.884;4.346;2022-08-18T14:16:45;26.70;99.90
30893;DHT22;17595;50.884;4.346;2022-08-18T14:19:11;26.40;99.90
30893;DHT22;17595;50.884;4.346;2022-08-18T14:21:55;26.40;99.90
30893;DHT22;17595;50.884;4.346;2022-08-18T14:24:41;26.40;99.90
30893;DHT22;17595;50.884;4.346;2022-08-18T14:27:34;26.40;99.90
30893;DHT22;17595;50.884;4.346;2022-08-18T14:30:03;26.30;99.90
30893;DHT22;17595;50.884;4.346;2022-08-18T14:32:28;26.30;99.90
30893;DHT22;17595;50.884;4.346;2022-08-18T14:34:59;26.30;99.90
30893;DHT22;17595;50.884;4.346;2022-08-18T14:37:25;26.20;99.90
30893;DHT22;17595;50.884;4.346;2022-08-18T14:39:51;26.10;99.90
30893;DHT22;17595;50.884;4.346;2022-08-18T14:42:17;26.20;99.90
30893;DHT22;17595;50.884;4.346;2022-08-18T14:44:44;26.20;99.90
30893;DHT22;17595;50.884;4.346;2022-08-18T14:47:10;26.20;99.90
30893;DHT22;17595;50.884;4.346;2022-08-18T14:49:36;26.40;99.90
30893;DHT22;17595;50.884;4.346;2022-08-18T14:52:02;26.60;99.90
30893;DHT22;17595;50.884;4.346;2022-08-18T14:54:29;26.60;99.90
30893;DHT22;17595;50.884;4.346;2022-08-18T14:56:56;26.70;99.90
30893;DHT22;17595;50.884;4.346;2022-08-18T14:59:22;26.90;99.90
30893;DHT22;17595;50.884;4.346;2022-08-18T15:01:49;26.80;99.90
30893;DHT22;17595;50.884;4.346;2022-08-18T15:04:15;27.20;99.90
30893;DHT22;17595;50.884;4.346;2022-08-18T15:06:41;27.40;99.90
30893;DHT22;17595;50.884;4.346;2022-08-18T15:09:07;27.50;99.90
30893;DHT22;17595;50.884;4.346;2022-08-18T15:11:33;27.40;99.90
30893;DHT22;17595;50.884;4.346;2022-08-18T15:13:59;27.70;99.90
30893;DHT22;17595;50.884;4.346;2022-08-18T15:16:25;27.60;99.90
30893;DHT22;17595;50.884;4.346;2022-08-18T15:18:52;27.90;99.90
30893;DHT22;17595;50.884;4.346;2022-08-18T15:21:17;27.50;99.90
30893;DHT22;17595;50.884;4.346;2022-08-18T15:24:02;27.20;99.90
30893;DHT22;17595;50.884;4.346;2022-08-18T15:26:47;27.20;99.90
30893;DHT22;17595;50.884;4.346;2022-08-18T15:29:13;26.90;99.90
30893;DHT22;17595;50.884;4.346;2022-08-18T15:31:39;27.10;99.90
30893;DHT22;17595;50.884;4.346;2022-08-18T15:34:05;27.20;99.90
30893;DHT22;17595;50.884;4.346;2022-08-18T15:36:31;27.30;99.90
30893;DHT22;17595;50.884;4.346;2022-08-18T15:38:58;27.40;99.90
30893;DHT22;17595;50.884;4.346;2022-08-18T15:41:37;27.10;99.90
30893;DHT22;17595;50.884;4.346;2022-08-18T15:44:05;27.00;99.90
30893;DHT22;17595;50.884;4.346;2022-08-18T15:46:32;27.00;99.90
30893;DHT22;17595;50.884;4.346;2022-08-18T15:48:59;27.00;99.90
30893;DHT22;17595;50.884;4.346;2022-08-18T15:51:25;27.10;99.90
30893;DHT22;17595;50.884;4.346;2022-08-18T15:53:51;27.10;99.90
30893;DHT22;17595;50.884;4.346;2022-08-18T15:56:20;27.30;99.90
30893;DHT22;17595;50.884;4.346;2022-08-18T15:58:47;27.10;99.90
30893;DHT22;17595;50.884;4.346;2022-08-18T16:01:13;27.10;99.90
30893;DHT22;17595;50.884;4.346;2022-08-18T16:03:39;27.20;99.90
30893;DHT22;17595;50.884;4.346;2022-08-18T16:06:05;27.10;99.90
30893;DHT22;17595;50.884;4.346;2022-08-18T16:08:32;26.90;99.90
30893;DHT22;17595;50.884;4.346;2022-08-18T16:11:08;27.00;99.90
30893;DHT22;17595;50.884;4.346;2022-08-18T16:13:34;27.10;99.90
30893;DHT22;17595;50.884;4.346;2022-08-18T16:16:14;27.40;99.90
30893;DHT22;17595;50.884;4.346;2022-08-18T16:18:40;27.30;99.90
30893;DHT22;17595;50.884;4.346;2022-08-18T16:21:08;26.90;99.90
30893;DHT22;17595;50.884;4.346;2022-08-18T16:23:37;26.80;99.90
30893;DHT22;17595;50.884;4.346;2022-08-18T16:26:03;26.90;99.90
30893;DHT22;17595;50.884;4.346;2022-08-18T16:28:29;27.00;99.90
30893;DHT22;17595;50.884;4.346;2022-08-18T16:30:55;26.80;99.90
30893;DHT22;17595;50.884;4.346;2022-08-18T16:33:22;26.70;99.90
30893;DHT22;17595;50.884;4.346;2022-08-18T16:35:48;26.70;99.90
30893;DHT22;17595;50.884;4.346;2022-08-18T16:38:16;26.70;99.90
30893;DHT22;17595;50.884;4.346;2022-08-18T16:40:41;26.70;99.90
30893;DHT22;17595;50.884;4.346;2022-08-18T16:43:07;26.70;99.90
30893;DHT22;17595;50.884;4.346;2022-08-18T16:45:35;26.70;99.90
30893;DHT22;17595;50.884;4.346;2022-08-18T16:48:01;26.70;99.90
30893;DHT22;17595;50.884;4.346;2022-08-18T16:50:27;26.70;99.90
30893;DHT22;17595;50.884;4.346;2022-08-18T16:52:53;26.50;99.90
30893;DHT22;17595;50.884;4.346;2022-08-18T16:55:19;26.50;99.90
30893;DHT22;17595;50.884;4.346;2022-08-18T16:57:45;26.50;99.90
30893;DHT22;17595;50.884;4.346;2022-08-18T17:00:49;26.50;99.90
30893;DHT22;17595;50.884;4.346;2022-08-18T17:03:33;26.50;99.90
30893;DHT22;17595;50.884;4.346;2022-08-18T17:06:18;26.50;99.90
30893;DHT22;17595;50.884;4.346;2022-08-18T17:08:45;26.70;99.90
30893;DHT22;17595;50.884;4.346;2022-08-18T17:11:13;26.60;99.90
30893;DHT22;17595;50.884;4.346;2022-08-18T17:13:40;26.50;99.90
30893;DHT22;17595;50.884;4.346;2022-08-18T17:16:07;26.50;99.90
30893;DHT22;17595;50.884;4.346;2022-08-18T17:18:33;26.60;99.90
30893;DHT22;17595;50.884;4.346;2022-08-18T17:21:01;26.60;99.90
30893;DHT22;17595;50.884;4.346;2022-08-18T17:23:29;26.40;99.90
30893;DHT22;17595;50.884;4.346;2022-08-18T17:25:55;26.40;99.90
30893;DHT22;17595;50.884;4.346;2022-08-18T17:28:25;26.40;99.90
30893;DHT22;17595;50.884;4.346;2022-08-18T17:30:54;26.30;99.90
30893;DHT22;17595;50.884;4.346;2022-08-18T17:33:26;26.20;99.90
30893;DHT22;17595;50.884;4.346;2022-08-18T17:35:53;26.20;99.90
30893;DHT22;17595;50.884;4.346;2022-08-18T17:38:26;26.20;99.90
30893;DHT22;17595;50.884;4.346;2022-08-18T17:40:59;26.30;99.90
30893;DHT22;17595;50.884;4.346;2022-08-18T17:43:36;26.50;99.90
30893;DHT22;17595;50.884;4.346;2022-08-18T17:46:27;26.60;99.90
30893;DHT22;17595;50.884;4.346;2022-08-18T17:48:59;26.50;99.90
30893;DHT22;17595;50.884;4.346;2022-08-18T17:51:46;26.20;99.90
30893;DHT22;17595;50.884;4.346;2022-08-18T17:57:24;26.00;99.90
30893;DHT22;17595;50.884;4.346;2022-08-18T18:00:06;26.10;99.90
30893;DHT22;17595;50.884;4.346;2022-08-18T18:02:36;26.00;99.90
30893;DHT22;17595;50.884;4.346;2022-08-18T18:05:07;25.90;99.90
30893;DHT22;17595;50.884;4.346;2022-08-18T18:10:28;25.80;99.90
30893;DHT22;17595;50.884;4.346;2022-08-18T18:13:07;25.90;99.90
30893;DHT22;17595;50.884;4.346;2022-08-18T18:15:33;26.00;99.90
30893;DHT22;17595;50.884;4.346;2022-08-18T18:18:30;26.00;99.90
30893;DHT22;17595;50.884;4.346;2022-08-18T18:21:07;26.10;99.90
30893;DHT22;17595;50.884;4.346;2022-08-18T18:23:48;26.00;99.90
30893;DHT22;17595;50.884;4.346;2022-08-18T18:28:44;25.80;99.90
30893;DHT22;17595;50.884;4.346;2022-08-18T18:31:24;25.70;99.90
30893;DHT22;17595;50.884;4.346;2022-08-18T18:34:44;25.50;99.90